Time;durP1;ratioP1;P1;durP2;ratioP2;P2;SDS_P1;SDS_P2;PMS_P1;PMS_P2;Temp;Humidity;BMP_temperature;BMP_pressure;BME280_temperature;BME280_humidity;BME280_pressure;Samples;Min_cycle;Max_cycle;Signal;HPM_P1;HPM_P2
2022/07/18 00:02:08;;;;;;;10.60;7.22;;;15.90;99.90;;;;;;5051477;28;20049;-75
2022/07/18 00:04:34;;;;;;;10.80;7.10;;;15.90;99.90;;;;;;5017489;28;20037;-75
2022/07/18 00:07:00;;;;;;;15.23;7.15;;;15.90;99.90;;;;;;5023234;28;20040;-76
2022/07/18 00:09:25;;;;;;;9.32;6.70;;;15.90;99.90;;;;;;5050051;28;20055;-75
2022/07/18 00:11:52;;;;;;;9.98;7.03;;;15.80;99.90;;;;;;5034968;28;20139;-75
2022/07/18 00:14:19;;;;;;;9.80;6.57;;;15.80;99.90;;;;;;5051323;28;20040;-75
2022/07/18 00:16:45;;;;;;;9.68;6.80;;;15.70;99.90;;;;;;5033322;28;20036;-75
2022/07/18 00:19:11;;;;;;;9.95;7.32;;;15.70;99.90;;;;;;5050611;28;20450;-75
2022/07/18 00:21:37;;;;;;;9.68;6.45;;;15.70;99.90;;;;;;5048364;28;20043;-75
2022/07/18 00:24:03;;;;;;;8.90;6.32;;;15.70;99.90;;;;;;5034290;28;20060;-75
2022/07/18 00:26:28;;;;;;;8.52;6.50;;;15.70;99.90;;;;;;5050211;28;20040;-75
2022/07/18 00:28:54;;;;;;;11.57;6.57;;;15.70;99.90;;;;;;5035081;28;20493;-75
2022/07/18 00:31:20;;;;;;;8.20;6.32;;;15.70;99.90;;;;;;5050379;28;20056;-75
2022/07/18 00:33:46;;;;;;;8.77;6.40;;;15.70;99.90;;;;;;5051080;28;20507;-75
2022/07/18 00:36:12;;;;;;;10.85;6.18;;;15.70;99.90;;;;;;5029473;28;20044;-75
2022/07/18 00:38:37;;;;;;;10.57;6.60;;;15.70;99.90;;;;;;5035269;28;20496;-75
2022/07/18 00:41:03;;;;;;;9.45;6.15;;;15.70;99.90;;;;;;5034369;28;20033;-75
2022/07/18 00:43:29;;;;;;;10.13;6.78;;;15.70;99.90;;;;;;5033821;28;20126;-75
2022/07/18 00:45:55;;;;;;;10.27;6.43;;;15.60;99.90;;;;;;5049854;28;20127;-75
2022/07/18 00:48:21;;;;;;;9.00;6.20;;;15.60;99.90;;;;;;5045226;28;20044;-75
2022/07/18 00:50:47;;;;;;;10.45;6.30;;;15.50;99.90;;;;;;5050002;28;20070;-75
2022/07/18 00:53:13;;;;;;;9.93;6.47;;;15.50;99.90;;;;;;5033628;28;20040;-75
2022/07/18 00:55:40;;;;;;;8.95;6.55;;;15.40;99.90;;;;;;5050421;28;20051;-75
2022/07/18 00:58:08;;;;;;;11.35;6.38;;;15.30;99.90;;;;;;5040721;28;20036;-75
2022/07/18 01:03:18;;;;;;;12.18;7.22;;;15.30;99.90;;;;;;5051747;28;20120;-75
2022/07/18 01:05:43;;;;;;;11.68;6.68;;;15.30;99.90;;;;;;5049574;28;20112;-75
2022/07/18 01:08:09;;;;;;;9.65;6.28;;;15.30;99.90;;;;;;5048312;28;20402;-75
2022/07/18 01:10:35;;;;;;;8.82;5.88;;;15.30;99.90;;;;;;4999185;28;20078;-75
2022/07/18 01:13:01;;;;;;;13.73;7.22;;;15.30;99.90;;;;;;5033691;28;20150;-75
2022/07/18 01:15:27;;;;;;;10.15;6.47;;;15.30;99.90;;;;;;5033907;28;20098;-75
2022/07/18 01:17:53;;;;;;;10.70;6.85;;;15.30;99.90;;;;;;5050457;28;20707;-75
2022/07/18 01:20:19;;;;;;;12.38;6.63;;;15.30;99.90;;;;;;5050310;28;20044;-75
2022/07/18 01:22:45;;;;;;;11.30;6.32;;;15.30;99.90;;;;;;5037818;28;20190;-75
2022/07/18 01:25:11;;;;;;;10.32;6.65;;;15.30;99.90;;;;;;5051447;28;20040;-75
2022/07/18 01:27:37;;;;;;;9.35;6.85;;;15.30;99.90;;;;;;5063835;28;20051;-75
2022/07/18 01:30:05;;;;;;;12.77;6.90;;;15.30;99.90;;;;;;5050151;28;20045;-75
2022/07/18 01:32:31;;;;;;;12.38;7.30;;;15.30;99.90;;;;;;5047823;28;20053;-75
2022/07/18 01:34:57;;;;;;;15.75;7.38;;;15.30;99.90;;;;;;5049059;28;20164;-75
2022/07/18 01:37:23;;;;;;;10.05;6.93;;;15.20;99.90;;;;;;5041595;28;20494;-75
2022/07/18 01:39:49;;;;;;;11.95;7.10;;;15.20;99.90;;;;;;5030819;28;20037;-75
2022/07/18 01:42:16;;;;;;;10.40;6.82;;;15.20;99.90;;;;;;5050454;28;20044;-75
2022/07/18 01:44:42;;;;;;;11.20;7.32;;;15.10;99.90;;;;;;5017516;28;20055;-75
2022/07/18 01:47:09;;;;;;;11.85;7.72;;;15.10;99.90;;;;;;5049889;28;20040;-75
2022/07/18 01:49:35;;;;;;;10.63;7.40;;;15.00;99.90;;;;;;5040290;28;20090;-75
2022/07/18 01:52:02;;;;;;;9.75;7.75;;;14.90;99.90;;;;;;5042780;28;20048;-76
2022/07/18 01:54:30;;;;;;;12.55;7.60;;;14.80;99.90;;;;;;5062543;28;20041;-75
2022/07/18 01:56:58;;;;;;;10.32;7.32;;;14.70;99.90;;;;;;5033070;28;20039;-75
2022/07/18 01:59:27;;;;;;;12.68;7.82;;;14.60;99.90;;;;;;5034022;28;20039;-75
2022/07/18 02:01:53;;;;;;;14.32;7.63;;;14.60;99.90;;;;;;5065394;28;20115;-75
2022/07/18 02:04:19;;;;;;;10.38;6.90;;;14.50;99.90;;;;;;5034459;28;20063;-75
2022/07/18 02:06:45;;;;;;;10.15;6.60;;;14.50;99.90;;;;;;5028412;28;20506;-75
2022/07/18 02:09:14;;;;;;;10.18;7.25;;;14.50;99.90;;;;;;5052907;28;20094;-76
2022/07/18 02:11:40;;;;;;;11.13;7.15;;;14.40;99.90;;;;;;5048792;28;20502;-76
2022/07/18 02:14:05;;;;;;;12.20;7.18;;;14.40;99.90;;;;;;5054661;28;20036;-75
2022/07/18 02:16:31;;;;;;;11.18;7.05;;;14.40;99.90;;;;;;5046597;28;20436;-75
2022/07/18 02:19:00;;;;;;;13.18;6.80;;;14.40;99.90;;;;;;5040128;28;20049;-75
2022/07/18 02:21:26;;;;;;;12.80;8.15;;;14.40;99.90;;;;;;5053888;28;20043;-76
2022/07/18 02:23:51;;;;;;;10.45;7.15;;;14.40;99.90;;;;;;5036367;28;20025;-75
2022/07/18 02:26:17;;;;;;;10.35;7.32;;;14.30;99.90;;;;;;5026322;28;20386;-75
2022/07/18 02:28:43;;;;;;;11.43;8.27;;;14.30;99.90;;;;;;5046182;28;20032;-75
2022/07/18 02:31:09;;;;;;;15.82;7.28;;;14.40;99.90;;;;;;5055787;28;20417;-75
2022/07/18 02:33:35;;;;;;;8.95;6.47;;;14.30;99.90;;;;;;5052953;28;20052;-75
2022/07/18 02:36:01;;;;;;;10.77;6.75;;;14.40;99.90;;;;;;5066215;28;20625;-75
2022/07/18 02:38:26;;;;;;;13.80;7.22;;;14.30;99.90;;;;;;5059060;28;20044;-75
2022/07/18 02:40:52;;;;;;;9.15;7.10;;;14.30;99.90;;;;;;5036715;28;20032;-76
2022/07/18 02:43:18;;;;;;;11.80;7.47;;;14.30;99.90;;;;;;5051125;28;20039;-75
2022/07/18 02:45:44;;;;;;;11.52;8.02;;;14.30;99.90;;;;;;5050659;28;20041;-75
2022/07/18 02:48:10;;;;;;;10.75;7.55;;;14.30;99.90;;;;;;5028410;28;20033;-76
2022/07/18 02:50:35;;;;;;;12.07;7.13;;;14.30;99.90;;;;;;5052820;28;20116;-76
2022/07/18 02:53:01;;;;;;;10.80;6.95;;;14.30;99.90;;;;;;5043523;28;20029;-75
2022/07/18 02:55:27;;;;;;;11.07;7.38;;;14.30;99.90;;;;;;5047997;28;20205;-75
2022/07/18 02:57:52;;;;;;;12.30;6.65;;;14.30;99.90;;;;;;5033508;28;20131;-75
2022/07/18 03:00:18;;;;;;;10.90;6.80;;;14.20;99.90;;;;;;5027683;28;20033;-75
2022/07/18 03:02:45;;;;;;;10.32;7.07;;;14.20;99.90;;;;;;5050308;28;20032;-75
2022/07/18 03:05:12;;;;;;;9.55;6.80;;;14.20;99.90;;;;;;5050009;28;20032;-75
2022/07/18 03:07:40;;;;;;;9.80;6.50;;;14.20;99.90;;;;;;5051160;28;20048;-75
2022/07/18 03:10:09;;;;;;;16.13;6.97;;;14.20;99.90;;;;;;5041958;28;20111;-75
2022/07/18 03:12:34;;;;;;;13.55;7.03;;;14.20;99.90;;;;;;5035767;28;20600;-75
2022/07/18 03:15:00;;;;;;;10.48;7.20;;;14.10;99.90;;;;;;5031261;28;20078;-75
2022/07/18 03:17:26;;;;;;;9.10;6.60;;;14.10;99.90;;;;;;5037953;28;20036;-75
2022/07/18 03:19:52;;;;;;;9.60;6.05;;;14.10;99.90;;;;;;5058569;28;20048;-75
2022/07/18 03:22:17;;;;;;;11.55;6.80;;;14.10;99.90;;;;;;5056237;28;20064;-75
2022/07/18 03:24:43;;;;;;;10.48;6.53;;;14.10;99.90;;;;;;5045833;28;20036;-75
2022/07/18 03:27:09;;;;;;;9.15;6.47;;;14.00;99.90;;;;;;5053618;28;20124;-75
2022/07/18 03:29:34;;;;;;;13.57;6.43;;;14.00;99.90;;;;;;5037195;28;20048;-75
2022/07/18 03:32:00;;;;;;;11.15;6.60;;;14.00;99.90;;;;;;5050198;28;20045;-75
2022/07/18 03:34:26;;;;;;;11.25;6.45;;;13.90;99.90;;;;;;5050077;28;20060;-75
2022/07/18 03:36:51;;;;;;;9.18;6.38;;;13.90;99.90;;;;;;5048306;28;20245;-75
2022/07/18 03:39:17;;;;;;;9.90;6.53;;;13.90;99.90;;;;;;5031900;28;20068;-75
2022/07/18 03:41:43;;;;;;;10.25;7.55;;;13.90;99.90;;;;;;5031901;28;20033;-76
2022/07/18 03:44:10;;;;;;;12.23;7.85;;;13.80;99.90;;;;;;5030628;28;20037;-75
2022/07/18 03:46:35;;;;;;;11.35;7.43;;;13.80;99.90;;;;;;5046835;28;20448;-75
2022/07/18 03:49:02;;;;;;;17.95;7.85;;;13.70;99.90;;;;;;5014056;28;20041;-76
2022/07/18 03:51:27;;;;;;;12.23;7.07;;;13.80;99.90;;;;;;5047158;28;20033;-75
2022/07/18 03:53:53;;;;;;;11.90;6.95;;;13.80;99.90;;;;;;5031103;28;20390;-75
2022/07/18 03:56:19;;;;;;;12.32;6.50;;;13.80;99.90;;;;;;5057922;28;20511;-75
2022/07/18 03:58:45;;;;;;;10.00;6.05;;;13.80;99.90;;;;;;5030957;28;20029;-75
2022/07/18 04:01:11;;;;;;;11.30;6.30;;;13.80;99.90;;;;;;5031577;28;20372;-75
2022/07/18 04:03:37;;;;;;;11.43;6.38;;;13.80;99.90;;;;;;5048174;28;20464;-76
2022/07/18 04:06:03;;;;;;;10.70;6.35;;;13.90;99.90;;;;;;5030080;28;20033;-75
2022/07/18 04:08:28;;;;;;;16.48;8.63;;;13.90;99.90;;;;;;5056857;28;20041;-75
2022/07/18 04:10:54;;;;;;;17.02;7.60;;;13.80;99.90;;;;;;5053625;28;20146;-76
2022/07/18 04:13:20;;;;;;;13.10;7.85;;;13.80;99.90;;;;;;5031750;28;20151;-76
2022/07/18 04:15:46;;;;;;;15.00;7.90;;;13.80;99.90;;;;;;5029190;28;20084;-75
2022/07/18 04:18:12;;;;;;;20.92;8.25;;;13.70;99.90;;;;;;5030294;28;20037;-76
2022/07/18 04:20:40;;;;;;;17.83;8.00;;;13.80;99.90;;;;;;5030393;28;20064;-75
2022/07/18 04:23:08;;;;;;;22.45;8.00;;;13.80;99.90;;;;;;5045028;28;20447;-76
2022/07/18 04:25:41;;;;;;;19.60;7.80;;;13.80;99.90;;;;;;5047374;28;20453;-73
2022/07/18 04:28:09;;;;;;;13.10;7.10;;;13.80;99.90;;;;;;5061340;28;20065;-75
2022/07/18 04:30:35;;;;;;;14.90;7.03;;;13.80;99.90;;;;;;5056741;28;20060;-75
2022/07/18 04:33:06;;;;;;;15.60;7.93;;;13.80;99.90;;;;;;5056205;28;20047;-75
2022/07/18 04:35:35;;;;;;;11.98;7.20;;;13.80;99.90;;;;;;5030502;28;20037;-75
2022/07/18 04:38:02;;;;;;;11.82;7.30;;;13.80;99.90;;;;;;5032837;28;20512;-75
2022/07/18 04:40:28;;;;;;;11.43;6.85;;;13.90;99.90;;;;;;5031837;28;20043;-76
2022/07/18 04:42:54;;;;;;;13.13;7.90;;;13.80;99.90;;;;;;5049972;28;20573;-76
2022/07/18 04:45:23;;;;;;;11.40;7.22;;;13.80;99.90;;;;;;5039328;28;20134;-76
2022/07/18 04:47:53;;;;;;;10.20;7.40;;;13.80;99.90;;;;;;5038740;28;20041;-75
2022/07/18 04:50:19;;;;;;;12.95;8.02;;;13.80;99.90;;;;;;5051134;28;20509;-75
2022/07/18 04:52:46;;;;;;;13.93;8.38;;;13.80;99.90;;;;;;5031388;28;20037;-75
2022/07/18 04:55:14;;;;;;;11.85;7.57;;;13.80;99.90;;;;;;5034167;28;20036;-76
2022/07/18 04:57:40;;;;;;;12.13;6.80;;;13.90;99.90;;;;;;5050120;28;20450;-75
2022/07/18 05:00:18;;;;;;;8.88;6.55;;;13.90;99.90;;;;;;5042040;28;20029;-75
2022/07/18 05:02:47;;;;;;;9.52;6.90;;;14.00;99.90;;;;;;5048531;28;20079;-75
2022/07/18 05:05:15;;;;;;;11.25;7.10;;;14.00;99.90;;;;;;5058150;28;20041;-75
2022/07/18 05:07:42;;;;;;;8.38;6.25;;;14.10;99.90;;;;;;5049567;28;20044;-75
2022/07/18 05:10:10;;;;;;;9.98;6.50;;;14.20;99.90;;;;;;5048822;28;20083;-75
2022/07/18 05:12:37;;;;;;;13.07;6.70;;;14.30;99.90;;;;;;5048491;28;20505;-75
2022/07/18 05:15:11;;;;;;;7.97;5.35;;;14.40;99.90;;;;;;5048662;28;20032;-75
2022/07/18 05:17:38;;;;;;;7.70;5.47;;;14.50;99.90;;;;;;5050308;28;20041;-75
2022/07/18 05:20:05;;;;;;;10.05;5.35;;;14.60;99.90;;;;;;5039373;28;20029;-76
2022/07/18 05:22:33;;;;;;;7.15;4.47;;;14.80;99.90;;;;;;5050879;28;20041;-76
2022/07/18 05:25:00;;;;;;;4.70;3.65;;;14.80;99.90;;;;;;5050767;28;20043;-75
2022/07/18 05:27:26;;;;;;;5.75;3.75;;;14.90;99.90;;;;;;5050746;28;20123;-75
2022/07/18 05:29:51;;;;;;;6.22;3.95;;;15.00;99.90;;;;;;5034395;28;20518;-75
2022/07/18 05:32:17;;;;;;;6.35;3.53;;;15.10;99.90;;;;;;5032524;28;20074;-75
2022/07/18 05:34:43;;;;;;;5.85;3.92;;;15.10;99.90;;;;;;5034501;28;20032;-75
2022/07/18 05:37:09;;;;;;;6.18;4.38;;;15.20;99.90;;;;;;5047814;28;20036;-75
2022/07/18 05:39:35;;;;;;;4.75;3.80;;;15.30;99.90;;;;;;5036100;28;20170;-75
2022/07/18 05:42:02;;;;;;;8.70;3.70;;;15.30;99.90;;;;;;5019104;28;20052;-75
2022/07/18 05:44:28;;;;;;;5.20;3.50;;;15.40;99.90;;;;;;5022108;28;20036;-76
2022/07/18 05:46:53;;;;;;;7.05;3.60;;;15.50;99.90;;;;;;5051674;28;20037;-75
2022/07/18 05:49:19;;;;;;;6.95;4.05;;;15.60;99.90;;;;;;5034327;28;20521;-75
2022/07/18 05:51:45;;;;;;;4.97;3.35;;;15.70;99.90;;;;;;5035532;28;20041;-75
2022/07/18 05:54:11;;;;;;;8.50;3.88;;;15.70;99.90;;;;;;5043509;28;20032;-75
2022/07/18 05:56:37;;;;;;;7.53;3.50;;;15.80;99.90;;;;;;5037899;28;20041;-75
2022/07/18 05:59:03;;;;;;;5.45;3.90;;;15.80;99.90;;;;;;5020766;28;20550;-75
2022/07/18 06:01:28;;;;;;;10.65;3.70;;;15.80;99.90;;;;;;5038523;28;20036;-77
2022/07/18 06:03:54;;;;;;;7.30;2.78;;;15.90;99.90;;;;;;5054555;28;20110;-76
2022/07/18 06:06:20;;;;;;;7.95;3.67;;;16.00;99.90;;;;;;5037456;28;20040;-76
2022/07/18 06:08:45;;;;;;;11.20;3.30;;;16.10;99.90;;;;;;5010988;28;20474;-76
2022/07/18 06:11:11;;;;;;;5.55;3.35;;;16.20;99.90;;;;;;5021043;28;20075;-77
2022/07/18 06:13:39;;;;;;;5.80;3.38;;;16.40;99.90;;;;;;5038758;28;20489;-76
2022/07/18 06:16:06;;;;;;;11.63;3.70;;;16.50;99.90;;;;;;5054083;28;20165;-76
2022/07/18 06:18:34;;;;;;;4.47;3.28;;;16.70;99.90;;;;;;5038011;28;20090;-77
2022/07/18 06:21:03;;;;;;;8.02;3.30;;;16.80;99.90;;;;;;5041229;28;20032;-76
2022/07/18 06:23:29;;;;;;;4.47;3.17;;;16.90;99.90;;;;;;5053995;28;20111;-76
2022/07/18 06:25:56;;;;;;;5.10;2.88;;;17.00;99.90;;;;;;5037400;28;20119;-75
2022/07/18 06:28:22;;;;;;;5.15;2.70;;;17.10;99.90;;;;;;5054033;28;20102;-76
2022/07/18 06:30:48;;;;;;;6.20;3.10;;;17.20;99.90;;;;;;5051964;28;20067;-76
2022/07/18 06:33:14;;;;;;;5.13;3.25;;;17.30;99.90;;;;;;5029071;28;20099;-76
2022/07/18 06:35:40;;;;;;;7.88;3.13;;;17.40;99.90;;;;;;5036689;28;20028;-76
2022/07/18 06:38:06;;;;;;;3.70;2.90;;;17.50;99.90;;;;;;5035640;28;20040;-76
2022/07/18 06:40:32;;;;;;;11.02;4.25;;;17.60;99.90;;;;;;5051103;28;20044;-76
2022/07/18 06:42:58;;;;;;;10.00;3.47;;;17.70;99.90;;;;;;5037315;28;20032;-76
2022/07/18 06:45:23;;;;;;;6.20;2.55;;;17.80;99.90;;;;;;5064395;28;20105;-77
2022/07/18 06:47:49;;;;;;;4.25;2.75;;;17.90;99.90;;;;;;5050785;28;20139;-75
2022/07/18 06:50:16;;;;;;;5.70;2.95;;;18.00;99.90;;;;;;5054665;28;20047;-77
2022/07/18 06:52:44;;;;;;;5.07;3.05;;;18.10;99.90;;;;;;5049964;28;20040;-76
2022/07/18 06:55:11;;;;;;;8.77;3.10;;;18.20;99.90;;;;;;5051724;28;20044;-76
2022/07/18 06:57:37;;;;;;;5.72;2.58;;;18.40;99.90;;;;;;5053750;28;20413;-76
2022/07/18 07:00:04;;;;;;;4.75;3.22;;;18.40;99.90;;;;;;5040201;28;20040;-76
2022/07/18 07:02:30;;;;;;;9.00;3.10;;;18.50;99.90;;;;;;5043715;28;20067;-76
2022/07/18 07:04:56;;;;;;;6.60;2.92;;;18.50;99.90;;;;;;5043839;28;20083;-76
2022/07/18 07:07:21;;;;;;;5.57;2.90;;;18.60;99.90;;;;;;5046515;28;20102;-76
2022/07/18 07:09:47;;;;;;;8.60;2.85;;;18.70;99.90;;;;;;5044041;28;20047;-76
2022/07/18 07:12:13;;;;;;;8.95;2.97;;;18.80;99.90;;;;;;5062614;28;20044;-76
2022/07/18 07:14:39;;;;;;;6.85;3.03;;;18.90;99.90;;;;;;5027098;28;20562;-76
2022/07/18 07:17:05;;;;;;;5.40;2.95;;;19.10;99.90;;;;;;5041273;28;20036;-75
2022/07/18 07:19:34;;;;;;;6.03;2.72;;;19.30;99.90;;;;;;5040265;28;20044;-76
2022/07/18 07:22:00;;;;;;;5.32;2.42;;;19.40;99.90;;;;;;5038881;28;20068;-76
2022/07/18 07:24:26;;;;;;;6.35;2.80;;;19.70;99.90;;;;;;5030275;28;20086;-76
2022/07/18 07:26:51;;;;;;;8.20;2.90;;;19.80;99.90;;;;;;5039379;28;20051;-76
2022/07/18 07:29:17;;;;;;;13.63;3.20;;;20.00;99.90;;;;;;5040877;28;20478;-76
2022/07/18 07:31:43;;;;;;;15.73;3.00;;;20.20;99.90;;;;;;5049861;28;20049;-76
2022/07/18 07:34:09;;;;;;;3.42;2.45;;;20.40;99.90;;;;;;5026435;28;20094;-75
2022/07/18 07:36:35;;;;;;;4.15;2.38;;;20.60;99.90;;;;;;5024271;28;20506;-76
2022/07/18 07:39:01;;;;;;;8.73;2.50;;;20.80;99.90;;;;;;5022894;28;20043;-76
2022/07/18 07:41:27;;;;;;;10.82;2.70;;;20.90;99.90;;;;;;5056052;28;20045;-76
2022/07/18 07:43:53;;;;;;;5.80;2.38;;;21.00;99.80;;;;;;5054655;28;20052;-76
2022/07/18 07:46:19;;;;;;;6.35;2.70;;;21.20;99.50;;;;;;5039017;28;20072;-76
2022/07/18 07:48:47;;;;;;;6.53;2.53;;;21.40;99.50;;;;;;5025338;28;20093;-76
2022/07/18 07:51:13;;;;;;;8.65;2.42;;;21.60;99.00;;;;;;5040737;28;20083;-76
2022/07/18 07:53:39;;;;;;;3.60;2.38;;;21.70;98.80;;;;;;5055598;28;20047;-75
2022/07/18 07:56:05;;;;;;;6.65;2.20;;;21.80;98.30;;;;;;5007679;28;20049;-76
2022/07/18 07:58:31;;;;;;;5.95;2.10;;;22.00;98.10;;;;;;5040666;28;20033;-76
2022/07/18 08:00:59;;;;;;;5.38;2.10;;;22.20;98.00;;;;;;5057215;28;20401;-76
2022/07/18 08:03:25;;;;;;;6.78;2.40;;;22.30;97.30;;;;;;5056554;28;20044;-77
2022/07/18 08:05:51;;;;;;;3.45;2.25;;;22.50;97.00;;;;;;5026624;28;20037;-81
2022/07/18 08:08:18;;;;;;;4.47;2.60;;;22.60;96.70;;;;;;5050896;28;20090;-80
2022/07/18 08:10:44;;;;;;;6.25;2.55;;;22.70;96.60;;;;;;5054134;28;20044;-82
2022/07/18 08:13:12;;;;;;;6.60;2.28;;;22.90;96.60;;;;;;5058130;28;20041;-81
2022/07/18 08:15:38;;;;;;;6.18;2.03;;;23.10;96.20;;;;;;5062626;28;20041;-82
2022/07/18 08:18:04;;;;;;;4.03;2.15;;;23.20;94.60;;;;;;5042973;28;20048;-81
2022/07/18 08:20:31;;;;;;;4.65;2.15;;;23.30;93.80;;;;;;5025470;28;20041;-82
2022/07/18 08:23:05;;;;;;;3.53;2.25;;;23.20;93.30;;;;;;5041982;28;20032;-81
2022/07/18 08:25:34;;;;;;;4.78;1.70;;;23.30;93.50;;;;;;5058705;28;20029;-81
2022/07/18 08:28:00;;;;;;;3.90;1.80;;;23.30;93.80;;;;;;5041979;28;20041;-82
2022/07/18 08:30:26;;;;;;;6.68;2.08;;;23.40;93.80;;;;;;5058431;28;20076;-81
2022/07/18 08:32:52;;;;;;;4.47;2.13;;;23.60;94.40;;;;;;5041503;28;20060;-82
2022/07/18 08:35:18;;;;;;;5.60;2.15;;;23.70;94.00;;;;;;5039293;28;20365;-83
2022/07/18 08:37:44;;;;;;;4.85;2.22;;;23.90;93.80;;;;;;5043890;28;20486;-81
2022/07/18 08:40:11;;;;;;;6.82;2.40;;;23.90;94.00;;;;;;5056689;28;20040;-80
2022/07/18 08:42:37;;;;;;;5.68;1.92;;;24.00;93.20;;;;;;5041877;28;20175;-81
2022/07/18 08:45:04;;;;;;;5.18;2.10;;;24.10;93.40;;;;;;5041879;28;20051;-81
2022/07/18 08:47:30;;;;;;;4.93;2.45;;;24.20;93.00;;;;;;5038757;28;20036;-80
2022/07/18 08:49:58;;;;;;;3.17;2.08;;;24.30;93.50;;;;;;5037091;28;20163;-80
2022/07/18 08:52:24;;;;;;;4.53;2.35;;;24.50;93.40;;;;;;5036954;28;20426;-79
2022/07/18 08:54:50;;;;;;;6.53;2.17;;;24.70;92.70;;;;;;5023480;28;20037;-79
2022/07/18 08:57:16;;;;;;;10.25;2.10;;;24.80;92.40;;;;;;5052412;28;20527;-79
2022/07/18 08:59:42;;;;;;;5.15;2.13;;;24.90;92.20;;;;;;5041337;28;20039;-78
2022/07/18 09:02:08;;;;;;;5.03;2.13;;;25.10;91.80;;;;;;5024388;28;20036;-79
2022/07/18 09:04:36;;;;;;;5.05;2.35;;;25.20;91.90;;;;;;5038554;28;20486;-80
2022/07/18 09:07:03;;;;;;;4.97;1.95;;;25.30;91.20;;;;;;5053527;28;20063;-79
2022/07/18 09:09:30;;;;;;;6.53;1.88;;;25.40;91.50;;;;;;5053898;28;20087;-79
2022/07/18 09:11:59;;;;;;;4.78;1.88;;;25.40;90.80;;;;;;5037873;28;20044;-79
2022/07/18 09:14:44;;;;;;;5.93;2.20;;;25.50;90.90;;;;;;5038510;28;20094;-80
2022/07/18 09:17:12;;;;;;;5.82;2.08;;;25.50;90.70;;;;;;5056669;28;20127;-79
2022/07/18 09:19:55;;;;;;;4.13;2.05;;;25.60;90.40;;;;;;5049637;28;20419;-79
2022/07/18 09:22:22;;;;;;;4.07;1.95;;;25.70;90.50;;;;;;5051637;28;20505;-79
2022/07/18 09:24:54;;;;;;;5.97;2.45;;;25.60;90.10;;;;;;5038733;28;20044;-79
2022/07/18 09:27:37;;;;;;;4.18;2.10;;;25.70;90.20;;;;;;5053439;28;20041;-79
2022/07/18 09:30:09;;;;;;;5.07;1.92;;;25.70;90.20;;;;;;5037649;28;20428;-78
2022/07/18 09:32:36;;;;;;;;;;;25.70;89.70;;;;;;5053940;28;20528;-78
2022/07/18 09:35:06;;;;;;;7.00;2.45;;;25.70;90.20;;;;;;5054901;28;20305;-78
2022/07/18 09:37:33;;;;;;;6.85;2.03;;;25.60;89.80;;;;;;5057511;28;20052;-79
2022/07/18 09:40:20;;;;;;;3.25;1.90;;;25.60;89.10;;;;;;5059747;28;20063;-78
2022/07/18 09:42:58;;;;;;;5.32;2.20;;;25.60;84.40;;;;;;5037135;28;20043;-76
2022/07/18 09:45:24;;;;;;;4.53;1.70;;;25.70;88.00;;;;;;5056843;28;20041;-75
2022/07/18 09:47:57;;;;;;;4.97;2.00;;;25.90;88.80;;;;;;5036130;28;20095;-76
2022/07/18 09:50:32;;;;;;;4.60;1.90;;;26.00;85.60;;;;;;5057262;28;20095;-76
2022/07/18 09:53:09;;;;;;;4.20;2.00;;;26.10;85.40;;;;;;5037428;28;20118;-77
2022/07/18 09:55:41;;;;;;;6.85;1.88;;;26.30;85.50;;;;;;5042303;28;20041;-74
2022/07/18 09:58:08;;;;;;;5.53;1.65;;;26.50;85.20;;;;;;5054282;28;20490;-76
2022/07/18 10:00:39;;;;;;;5.30;1.90;;;26.60;83.50;;;;;;5051522;28;20070;-75
2022/07/18 10:03:07;;;;;;;5.63;2.20;;;26.80;81.90;;;;;;5038412;28;20068;-76
2022/07/18 10:05:36;;;;;;;4.47;2.00;;;26.80;82.00;;;;;;5051398;28;20283;-73
2022/07/18 10:08:05;;;;;;;6.75;2.20;;;26.90;79.80;;;;;;5036958;28;20045;-74
2022/07/18 10:10:31;;;;;;;3.75;2.13;;;26.90;80.70;;;;;;5056127;28;20051;-76
2022/07/18 10:13:00;;;;;;;5.55;2.20;;;27.00;79.70;;;;;;5039463;28;20043;-77
2022/07/18 10:15:29;;;;;;;5.10;2.45;;;27.10;80.00;;;;;;5038025;28;20056;-77
2022/07/18 10:17:55;;;;;;;4.50;2.33;;;27.20;80.00;;;;;;5054268;28;20532;-77
2022/07/18 10:20:36;;;;;;;7.40;2.30;;;27.20;78.90;;;;;;5056060;28;20053;-77
2022/07/18 10:23:24;;;;;;;7.80;2.97;;;27.30;79.00;;;;;;5037552;28;20032;-77
2022/07/18 10:26:21;;;;;;;6.93;2.58;;;27.50;77.60;;;;;;5043133;28;20037;-77
2022/07/18 10:28:56;;;;;;;6.00;2.75;;;27.70;76.70;;;;;;5043262;28;20130;-77
2022/07/18 10:31:31;;;;;;;6.63;2.47;;;27.80;77.80;;;;;;5054666;28;20060;-77
2022/07/18 10:34:11;;;;;;;3.78;2.30;;;27.90;77.00;;;;;;5074055;28;20098;-79
2022/07/18 10:37:06;;;;;;;5.32;2.42;;;27.90;75.60;;;;;;5041246;28;20520;-78
2022/07/18 10:39:42;;;;;;;5.72;2.42;;;27.90;76.00;;;;;;5054156;28;20045;-78
2022/07/18 10:42:11;;;;;;;8.50;2.95;;;27.90;75.40;;;;;;5054833;28;20040;-76
2022/07/18 10:44:40;;;;;;;6.28;2.40;;;27.90;74.70;;;;;;5054683;28;20053;-77
2022/07/18 10:47:23;;;;;;;5.60;2.53;;;27.90;74.00;;;;;;5036868;28;20162;-76
2022/07/18 10:49:57;;;;;;;4.38;2.20;;;27.80;73.80;;;;;;5055361;28;20045;-78
2022/07/18 10:52:26;;;;;;;3.90;2.33;;;27.80;74.40;;;;;;5062159;28;20036;-77
2022/07/18 10:55:04;;;;;;;6.20;2.70;;;27.90;73.50;;;;;;5039127;28;20510;-78
2022/07/18 10:57:30;;;;;;;5.95;2.40;;;28.00;71.20;;;;;;5045383;28;20044;-76
2022/07/18 11:00:25;;;;;;;4.90;3.03;;;28.10;70.90;;;;;;5054514;28;20033;-77
2022/07/18 11:03:00;;;;;;;6.45;2.42;;;28.20;68.10;;;;;;5057155;28;20673;-76
2022/07/18 11:05:26;;;;;;;4.95;2.53;;;28.30;70.00;;;;;;5045033;28;20040;-80
2022/07/18 11:07:57;;;;;;;6.43;2.65;;;28.50;70.30;;;;;;5035376;28;20094;-76
2022/07/18 11:10:42;;;;;;;5.10;2.80;;;28.50;70.50;;;;;;5035108;28;20540;-77
2022/07/18 11:16:12;;;;;;;6.15;2.85;;;28.70;66.60;;;;;;5039248;28;20056;-77
2022/07/18 11:18:44;;;;;;;6.43;2.95;;;28.80;67.80;;;;;;5040766;28;20048;-78
2022/07/18 11:21:36;;;;;;;5.57;2.88;;;29.00;67.30;;;;;;5037783;28;20045;-77
2022/07/18 11:24:10;;;;;;;4.72;2.58;;;29.00;67.10;;;;;;5052739;28;20284;-76
2022/07/18 11:26:38;;;;;;;4.68;2.80;;;29.10;67.30;;;;;;5036712;28;20045;-77
2022/07/18 11:29:06;;;;;;;7.30;2.95;;;29.20;67.90;;;;;;5046970;28;20483;-77
2022/07/18 11:31:43;;;;;;;5.72;2.40;;;29.30;67.50;;;;;;5035394;28;20064;-77
2022/07/18 11:34:08;;;;;;;4.90;2.58;;;29.30;67.20;;;;;;5051052;28;20132;-78
2022/07/18 11:36:34;;;;;;;4.57;3.10;;;29.50;66.20;;;;;;5067003;28;20060;-77
2022/07/18 11:39:03;;;;;;;7.80;2.88;;;29.50;67.40;;;;;;5039974;28;20290;-74
2022/07/18 11:41:29;;;;;;;6.38;3.03;;;29.60;66.80;;;;;;5053469;28;20033;-75
2022/07/18 11:43:56;;;;;;;7.90;2.97;;;29.70;64.90;;;;;;5057163;28;20033;-74
2022/07/18 11:46:24;;;;;;;5.97;3.10;;;29.80;63.00;;;;;;5038920;28;20307;-76
2022/07/18 11:49:00;;;;;;;4.80;2.95;;;29.80;62.60;;;;;;5044541;28;20209;-76
2022/07/18 11:51:38;;;;;;;6.13;2.85;;;29.90;62.80;;;;;;5041208;28;20036;-75
2022/07/18 11:54:04;;;;;;;5.13;3.08;;;29.90;61.90;;;;;;5055719;28;20121;-75
2022/07/18 11:56:30;;;;;;;6.10;3.42;;;29.90;61.80;;;;;;5054053;28;20074;-77
2022/07/18 11:58:57;;;;;;;6.43;3.20;;;30.10;61.60;;;;;;5058946;28;20494;-75
2022/07/18 12:01:33;;;;;;;4.72;3.03;;;30.10;61.70;;;;;;5040704;28;20040;-76
2022/07/18 12:03:59;;;;;;;5.63;3.78;;;30.30;61.00;;;;;;5019411;28;20030;-76
2022/07/18 12:06:27;;;;;;;4.80;3.10;;;30.40;62.50;;;;;;5031788;28;20529;-76
2022/07/18 12:09:02;;;;;;;5.40;3.20;;;30.50;60.90;;;;;;5043891;28;20037;-76
2022/07/18 12:11:34;;;;;;;4.32;2.95;;;30.50;59.60;;;;;;5043161;28;20044;-76
2022/07/18 12:14:20;;;;;;;6.18;3.15;;;30.40;60.10;;;;;;5065996;28;20041;-76
2022/07/18 12:16:48;;;;;;;4.45;2.83;;;30.30;61.00;;;;;;5049153;28;20101;-76
2022/07/18 12:19:24;;;;;;;4.97;3.40;;;30.30;61.00;;;;;;5050303;28;20036;-75
2022/07/18 12:22:04;;;;;;;4.53;2.95;;;30.20;61.40;;;;;;5032320;28;20119;-75
2022/07/18 12:24:36;;;;;;;6.47;3.20;;;30.00;59.40;;;;;;5049714;28;20559;-76
2022/07/18 12:27:14;;;;;;;5.32;3.35;;;29.80;59.60;;;;;;5049474;28;20037;-76
2022/07/18 12:30:03;;;;;;;4.75;3.38;;;29.60;59.60;;;;;;5032691;28;20040;-75
2022/07/18 12:32:51;;;;;;;7.57;3.33;;;29.50;61.20;;;;;;5048883;28;20138;-76
2022/07/18 12:35:21;;;;;;;5.75;3.47;;;29.50;61.60;;;;;;5049129;28;20052;-76
2022/07/18 12:38:03;;;;;;;5.13;3.30;;;29.50;61.40;;;;;;5048852;28;20049;-75
2022/07/18 12:40:46;;;;;;;7.47;3.38;;;29.60;62.40;;;;;;5048610;28;20100;-76
2022/07/18 12:43:31;;;;;;;4.80;2.83;;;29.70;63.00;;;;;;5048823;28;20465;-76
2022/07/18 12:45:58;;;;;;;6.38;2.90;;;29.90;62.90;;;;;;5048255;28;20045;-75
2022/07/18 12:48:24;;;;;;;4.97;3.05;;;30.00;62.20;;;;;;5048864;28;20060;-75
2022/07/18 12:51:06;;;;;;;4.50;2.78;;;30.10;61.60;;;;;;5048681;28;20470;-75
2022/07/18 12:53:34;;;;;;;3.88;3.15;;;30.00;60.80;;;;;;5049026;28;20041;-76
2022/07/18 12:56:00;;;;;;;5.15;3.05;;;29.90;60.60;;;;;;5048710;28;20056;-75